sensor_id;sensor_type;location;lat;lon;timestamp;temperature;humidity
2447;DHT22;26430;48.818;9.244;2023-04-06T00:01:40;3.60;99.90
2447;DHT22;26430;48.818;9.244;2023-04-06T00:04:06;3.60;99.90
2447;DHT22;26430;48.818;9.244;2023-04-06T00:06:32;3.50;99.90
2447;DHT22;26430;48.818;9.244;2023-04-06T00:08:59;3.50;99.90
2447;DHT22;26430;48.818;9.244;2023-04-06T00:11:25;3.50;99.90
2447;DHT22;26430;48.818;9.244;2023-04-06T00:13:51;3.40;99.90
2447;DHT22;26430;48.818;9.244;2023-04-06T00:16:17;3.50;99.90
2447;DHT22;26430;48.818;9.244;2023-04-06T00:18:42;3.40;99.90
2447;DHT22;26430;48.818;9.244;2023-04-06T00:21:10;3.30;99.90
2447;DHT22;26430;48.818;9.244;2023-04-06T00:23:36;3.30;99.90
2447;DHT22;26430;48.818;9.244;2023-04-06T00:26:01;3.20;99.90
2447;DHT22;26430;48.818;9.244;2023-04-06T00:28:27;3.20;99.90
2447;DHT22;26430;48.818;9.244;2023-04-06T00:30:55;3.20;99.90
2447;DHT22;26430;48.818;9.244;2023-04-06T00:33:24;3.10;99.90
2447;DHT22;26430;48.818;9.244;2023-04-06T00:35:50;3.00;99.90
2447;DHT22;26430;48.818;9.244;2023-04-06T00:38:16;3.00;99.90
2447;DHT22;26430;48.818;9.244;2023-04-06T00:40:42;3.00;99.90
2447;DHT22;26430;48.818;9.244;2023-04-06T00:43:10;3.00;99.90
2447;DHT22;26430;48.818;9.244;2023-04-06T00:45:38;2.90;99.90
2447;DHT22;26430;48.818;9.244;2023-04-06T00:48:05;2.90;99.90
2447;DHT22;26430;48.818;9.244;2023-04-06T00:50:31;2.90;99.90
2447;DHT22;26430;48.818;9.244;2023-04-06T00:52:58;2.80;99.90
2447;DHT22;26430;48.818;9.244;2023-04-06T00:55:23;2.70;99.90
2447;DHT22;26430;48.818;9.244;2023-04-06T00:57:49;2.60;99.90
2447;DHT22;26430;48.818;9.244;2023-04-06T01:00:16;2.60;99.90
2447;DHT22;26430;48.818;9.244;2023-04-06T01:02:42;2.70;99.90
2447;DHT22;26430;48.818;9.244;2023-04-06T01:05:08;2.70;99.90
2447;DHT22;26430;48.818;9.244;2023-04-06T01:07:33;2.60;99.90
2447;DHT22;26430;48.818;9.244;2023-04-06T01:09:59;2.50;99.90
2447;DHT22;26430;48.818;9.244;2023-04-06T01:12:26;2.50;99.90
2447;DHT22;26430;48.818;9.244;2023-04-06T01:14:52;2.60;99.90
2447;DHT22;26430;48.818;9.244;2023-04-06T01:17:17;2.60;99.90
2447;DHT22;26430;48.818;9.244;2023-04-06T01:19:43;2.50;99.90
2447;DHT22;26430;48.818;9.244;2023-04-06T01:22:17;2.40;99.90
2447;DHT22;26430;48.818;9.244;2023-04-06T01:24:43;2.50;99.90
2447;DHT22;26430;48.818;9.244;2023-04-06T01:27:09;2.40;99.90
2447;DHT22;26430;48.818;9.244;2023-04-06T01:29:35;2.40;99.90
2447;DHT22;26430;48.818;9.244;2023-04-06T01:32:00;2.40;99.90
2447;DHT22;26430;48.818;9.244;2023-04-06T01:34:26;2.40;99.90
2447;DHT22;26430;48.818;9.244;2023-04-06T01:36:52;2.30;99.90
2447;DHT22;26430;48.818;9.244;2023-04-06T01:39:17;2.20;99.90
2447;DHT22;26430;48.818;9.244;2023-04-06T01:41:43;2.20;99.90
2447;DHT22;26430;48.818;9.244;2023-04-06T01:44:09;2.20;99.90
2447;DHT22;26430;48.818;9.244;2023-04-06T01:46:34;2.20;99.90
2447;DHT22;26430;48.818;9.244;2023-04-06T01:49:00;2.20;99.90
2447;DHT22;26430;48.818;9.244;2023-04-06T01:51:26;2.20;99.90
2447;DHT22;26430;48.818;9.244;2023-04-06T01:53:52;2.20;99.90
2447;DHT22;26430;48.818;9.244;2023-04-06T01:56:17;2.10;99.90
2447;DHT22;26430;48.818;9.244;2023-04-06T01:58:43;2.10;99.90
2447;DHT22;26430;48.818;9.244;2023-04-06T02:01:09;2.00;99.90
2447;DHT22;26430;48.818;9.244;2023-04-06T02:03:34;2.00;99.90
2447;DHT22;26430;48.818;9.244;2023-04-06T02:06:00;2.00;99.90
2447;DHT22;26430;48.818;9.244;2023-04-06T02:08:26;2.00;99.90
2447;DHT22;26430;48.818;9.244;2023-04-06T02:10:51;1.90;99.90
2447;DHT22;26430;48.818;9.244;2023-04-06T02:13:17;1.90;99.90
2447;DHT22;26430;48.818;9.244;2023-04-06T02:15:43;1.80;99.90
2447;DHT22;26430;48.818;9.244;2023-04-06T02:18:08;1.80;99.90
2447;DHT22;26430;48.818;9.244;2023-04-06T02:20:35;1.80;99.90
2447;DHT22;26430;48.818;9.244;2023-04-06T02:23:00;1.70;99.90
2447;DHT22;26430;48.818;9.244;2023-04-06T02:25:26;1.70;99.90
2447;DHT22;26430;48.818;9.244;2023-04-06T02:27:52;1.80;99.90
2447;DHT22;26430;48.818;9.244;2023-04-06T02:30:17;1.80;99.90
2447;DHT22;26430;48.818;9.244;2023-04-06T02:32:43;1.80;99.90
2447;DHT22;26430;48.818;9.244;2023-04-06T02:35:09;1.90;99.90
2447;DHT22;26430;48.818;9.244;2023-04-06T02:37:34;1.80;99.90
2447;DHT22;26430;48.818;9.244;2023-04-06T02:40:00;1.80;99.90
2447;DHT22;26430;48.818;9.244;2023-04-06T02:42:25;1.80;99.90
2447;DHT22;26430;48.818;9.244;2023-04-06T02:44:51;1.90;99.90
2447;DHT22;26430;48.818;9.244;2023-04-06T02:47:17;1.90;99.90
2447;DHT22;26430;48.818;9.244;2023-04-06T02:49:42;1.90;99.90
2447;DHT22;26430;48.818;9.244;2023-04-06T02:52:08;1.80;99.90
2447;DHT22;26430;48.818;9.244;2023-04-06T02:54:33;1.80;99.90
2447;DHT22;26430;48.818;9.244;2023-04-06T02:56:59;1.80;99.90
2447;DHT22;26430;48.818;9.244;2023-04-06T02:59:25;1.80;99.90
2447;DHT22;26430;48.818;9.244;2023-04-06T03:01:51;1.70;99.90
2447;DHT22;26430;48.818;9.244;2023-04-06T03:04:16;1.70;99.90
2447;DHT22;26430;48.818;9.244;2023-04-06T03:06:42;1.70;99.90
2447;DHT22;26430;48.818;9.244;2023-04-06T03:09:07;1.60;99.90
2447;DHT22;26430;48.818;9.244;2023-04-06T03:11:33;1.60;99.90
2447;DHT22;26430;48.818;9.244;2023-04-06T03:13:59;1.60;99.90
2447;DHT22;26430;48.818;9.244;2023-04-06T03:16:24;1.60;99.90
2447;DHT22;26430;48.818;9.244;2023-04-06T03:18:50;1.50;99.90
2447;DHT22;26430;48.818;9.244;2023-04-06T03:21:15;1.50;99.90
2447;DHT22;26430;48.818;9.244;2023-04-06T03:23:42;1.50;99.90
2447;DHT22;26430;48.818;9.244;2023-04-06T03:26:07;1.90;99.90
2447;DHT22;26430;48.818;9.244;2023-04-06T03:28:33;1.90;99.90
2447;DHT22;26430;48.818;9.244;2023-04-06T03:30:59;1.80;99.90
2447;DHT22;26430;48.818;9.244;2023-04-06T03:33:25;1.80;99.90
2447;DHT22;26430;48.818;9.244;2023-04-06T03:35:53;1.70;99.90
2447;DHT22;26430;48.818;9.244;2023-04-06T03:38:18;1.70;99.90
2447;DHT22;26430;48.818;9.244;2023-04-06T03:40:44;1.60;99.90
2447;DHT22;26430;48.818;9.244;2023-04-06T03:43:10;1.60;99.90
2447;DHT22;26430;48.818;9.244;2023-04-06T03:45:36;1.50;99.90
2447;DHT22;26430;48.818;9.244;2023-04-06T03:48:02;1.50;99.90
2447;DHT22;26430;48.818;9.244;2023-04-06T03:50:27;1.50;99.90
2447;DHT22;26430;48.818;9.244;2023-04-06T03:52:53;1.40;99.90
2447;DHT22;26430;48.818;9.244;2023-04-06T03:55:19;1.40;99.90
2447;DHT22;26430;48.818;9.244;2023-04-06T03:57:44;1.50;99.90
2447;DHT22;26430;48.818;9.244;2023-04-06T04:00:10;1.40;99.90
2447;DHT22;26430;48.818;9.244;2023-04-06T04:02:36;1.40;99.90
2447;DHT22;26430;48.818;9.244;2023-04-06T04:05:02;1.20;99.90
2447;DHT22;26430;48.818;9.244;2023-04-06T04:07:28;1.30;99.90
2447;DHT22;26430;48.818;9.244;2023-04-06T04:09:53;1.20;99.90
2447;DHT22;26430;48.818;9.244;2023-04-06T04:12:19;1.20;99.90
2447;DHT22;26430;48.818;9.244;2023-04-06T04:14:45;1.40;99.90
2447;DHT22;26430;48.818;9.244;2023-04-06T04:17:10;1.50;99.90
2447;DHT22;26430;48.818;9.244;2023-04-06T04:19:36;1.50;99.90
2447;DHT22;26430;48.818;9.244;2023-04-06T04:22:01;1.40;99.90
2447;DHT22;26430;48.818;9.244;2023-04-06T04:24:30;1.30;99.90
2447;DHT22;26430;48.818;9.244;2023-04-06T04:26:56;1.30;99.90
2447;DHT22;26430;48.818;9.244;2023-04-06T04:29:22;1.40;99.90
2447;DHT22;26430;48.818;9.244;2023-04-06T04:31:48;1.30;99.90
2447;DHT22;26430;48.818;9.244;2023-04-06T04:34:15;1.30;99.90
2447;DHT22;26430;48.818;9.244;2023-04-06T04:36:41;1.20;99.90
2447;DHT22;26430;48.818;9.244;2023-04-06T04:39:07;1.20;99.90
2447;DHT22;26430;48.818;9.244;2023-04-06T04:41:33;1.20;99.90
2447;DHT22;26430;48.818;9.244;2023-04-06T04:43:58;1.20;99.90
2447;DHT22;26430;48.818;9.244;2023-04-06T04:46:24;1.20;99.90
2447;DHT22;26430;48.818;9.244;2023-04-06T04:48:50;1.10;99.90
2447;DHT22;26430;48.818;9.244;2023-04-06T04:51:15;1.10;99.90
2447;DHT22;26430;48.818;9.244;2023-04-06T04:53:41;1.00;99.90
2447;DHT22;26430;48.818;9.244;2023-04-06T04:56:07;1.10;99.90
2447;DHT22;26430;48.818;9.244;2023-04-06T04:58:32;1.00;99.90
2447;DHT22;26430;48.818;9.244;2023-04-06T05:00:58;1.10;99.90
2447;DHT22;26430;48.818;9.244;2023-04-06T05:03:25;1.00;99.90
2447;DHT22;26430;48.818;9.244;2023-04-06T05:05:51;1.10;99.90
2447;DHT22;26430;48.818;9.244;2023-04-06T05:08:16;1.20;99.90
2447;DHT22;26430;48.818;9.244;2023-04-06T05:10:42;1.30;99.90
2447;DHT22;26430;48.818;9.244;2023-04-06T05:13:09;1.20;99.90
2447;DHT22;26430;48.818;9.244;2023-04-06T05:15:35;1.20;99.90
2447;DHT22;26430;48.818;9.244;2023-04-06T05:18:04;1.10;99.90
2447;DHT22;26430;48.818;9.244;2023-04-06T05:20:29;1.10;99.90
2447;DHT22;26430;48.818;9.244;2023-04-06T05:22:55;1.10;99.90
2447;DHT22;26430;48.818;9.244;2023-04-06T05:25:21;1.10;99.90
2447;DHT22;26430;48.818;9.244;2023-04-06T05:27:46;1.10;99.90
2447;DHT22;26430;48.818;9.244;2023-04-06T05:30:12;1.10;99.90
2447;DHT22;26430;48.818;9.244;2023-04-06T05:32:38;1.20;99.90
2447;DHT22;26430;48.818;9.244;2023-04-06T05:35:03;1.20;99.90
2447;DHT22;26430;48.818;9.244;2023-04-06T05:37:29;1.20;99.90
2447;DHT22;26430;48.818;9.244;2023-04-06T05:39:55;1.20;99.90
2447;DHT22;26430;48.818;9.244;2023-04-06T05:42:21;1.20;99.90
2447;DHT22;26430;48.818;9.244;2023-04-06T05:44:47;1.20;99.90
2447;DHT22;26430;48.818;9.244;2023-04-06T05:47:13;1.20;99.90
2447;DHT22;26430;48.818;9.244;2023-04-06T05:49:38;1.30;99.90
2447;DHT22;26430;48.818;9.244;2023-04-06T05:52:04;1.30;99.90
2447;DHT22;26430;48.818;9.244;2023-04-06T05:54:30;1.40;99.90
2447;DHT22;26430;48.818;9.244;2023-04-06T05:56:55;1.40;99.90
2447;DHT22;26430;48.818;9.244;2023-04-06T05:59:21;1.40;99.90
2447;DHT22;26430;48.818;9.244;2023-04-06T06:01:46;1.40;99.90
2447;DHT22;26430;48.818;9.244;2023-04-06T06:04:12;1.40;99.90
2447;DHT22;26430;48.818;9.244;2023-04-06T06:06:38;1.40;99.90
2447;DHT22;26430;48.818;9.244;2023-04-06T06:09:03;1.40;99.90
2447;DHT22;26430;48.818;9.244;2023-04-06T06:11:29;1.50;99.90
2447;DHT22;26430;48.818;9.244;2023-04-06T06:13:55;1.50;99.90
2447;DHT22;26430;48.818;9.244;2023-04-06T06:16:21;1.60;99.90
2447;DHT22;26430;48.818;9.244;2023-04-06T06:18:47;1.50;99.90
2447;DHT22;26430;48.818;9.244;2023-04-06T06:21:13;1.60;99.90
2447;DHT22;26430;48.818;9.244;2023-04-06T06:23:39;1.70;99.90
2447;DHT22;26430;48.818;9.244;2023-04-06T06:26:04;1.50;99.90
2447;DHT22;26430;48.818;9.244;2023-04-06T06:28:30;1.60;99.90
2447;DHT22;26430;48.818;9.244;2023-04-06T06:30:56;1.70;99.90
2447;DHT22;26430;48.818;9.244;2023-04-06T06:33:22;1.80;99.90
2447;DHT22;26430;48.818;9.244;2023-04-06T06:35:48;2.00;99.90
2447;DHT22;26430;48.818;9.244;2023-04-06T06:38:14;2.10;99.90
2447;DHT22;26430;48.818;9.244;2023-04-06T06:40:40;2.20;99.90
2447;DHT22;26430;48.818;9.244;2023-04-06T06:43:06;2.10;99.90
2447;DHT22;26430;48.818;9.244;2023-04-06T06:45:31;2.30;99.90
2447;DHT22;26430;48.818;9.244;2023-04-06T06:47:57;2.40;99.90
2447;DHT22;26430;48.818;9.244;2023-04-06T06:50:23;2.50;99.90
2447;DHT22;26430;48.818;9.244;2023-04-06T06:52:48;2.90;99.90
2447;DHT22;26430;48.818;9.244;2023-04-06T06:55:14;3.00;99.90
2447;DHT22;26430;48.818;9.244;2023-04-06T06:57:40;3.00;99.90
2447;DHT22;26430;48.818;9.244;2023-04-06T07:00:08;3.10;99.90
2447;DHT22;26430;48.818;9.244;2023-04-06T07:02:35;3.20;99.90
2447;DHT22;26430;48.818;9.244;2023-04-06T07:05:01;3.20;99.90
2447;DHT22;26430;48.818;9.244;2023-04-06T07:07:27;3.30;99.90
2447;DHT22;26430;48.818;9.244;2023-04-06T07:09:52;3.50;99.90
2447;DHT22;26430;48.818;9.244;2023-04-06T07:12:18;3.60;99.90
2447;DHT22;26430;48.818;9.244;2023-04-06T07:14:44;3.70;99.90
2447;DHT22;26430;48.818;9.244;2023-04-06T07:17:09;3.70;99.90
2447;DHT22;26430;48.818;9.244;2023-04-06T07:19:35;3.80;99.90
2447;DHT22;26430;48.818;9.244;2023-04-06T07:22:01;3.90;99.90
2447;DHT22;26430;48.818;9.244;2023-04-06T07:24:27;4.10;99.90
2447;DHT22;26430;48.818;9.244;2023-04-06T07:26:53;4.20;99.90
2447;DHT22;26430;48.818;9.244;2023-04-06T07:29:18;4.30;99.90
2447;DHT22;26430;48.818;9.244;2023-04-06T07:31:44;4.50;99.90
2447;DHT22;26430;48.818;9.244;2023-04-06T07:34:10;4.50;99.90
2447;DHT22;26430;48.818;9.244;2023-04-06T07:36:36;4.60;99.90
2447;DHT22;26430;48.818;9.244;2023-04-06T07:39:02;4.80;99.90
2447;DHT22;26430;48.818;9.244;2023-04-06T07:41:27;4.80;99.90
2447;DHT22;26430;48.818;9.244;2023-04-06T07:43:53;4.90;99.90
2447;DHT22;26430;48.818;9.244;2023-04-06T07:46:18;5.10;99.90
2447;DHT22;26430;48.818;9.244;2023-04-06T07:48:44;5.30;99.90
2447;DHT22;26430;48.818;9.244;2023-04-06T07:51:10;5.30;99.90
2447;DHT22;26430;48.818;9.244;2023-04-06T07:53:39;5.40;99.90
2447;DHT22;26430;48.818;9.244;2023-04-06T07:56:05;5.40;99.90
2447;DHT22;26430;48.818;9.244;2023-04-06T07:58:31;5.40;99.90
2447;DHT22;26430;48.818;9.244;2023-04-06T08:00:57;5.40;99.90
2447;DHT22;26430;48.818;9.244;2023-04-06T08:03:23;5.60;99.90
2447;DHT22;26430;48.818;9.244;2023-04-06T08:05:51;5.70;99.90
2447;DHT22;26430;48.818;9.244;2023-04-06T08:08:18;5.90;99.90
2447;DHT22;26430;48.818;9.244;2023-04-06T08:10:43;5.90;99.90
2447;DHT22;26430;48.818;9.244;2023-04-06T08:13:09;6.00;99.90
2447;DHT22;26430;48.818;9.244;2023-04-06T08:15:35;6.20;99.90
2447;DHT22;26430;48.818;9.244;2023-04-06T08:18:01;6.40;99.90
2447;DHT22;26430;48.818;9.244;2023-04-06T08:20:26;6.50;99.90
2447;DHT22;26430;48.818;9.244;2023-04-06T08:22:52;6.60;99.90
2447;DHT22;26430;48.818;9.244;2023-04-06T08:25:17;6.60;99.90
2447;DHT22;26430;48.818;9.244;2023-04-06T08:27:43;6.50;99.90
2447;DHT22;26430;48.818;9.244;2023-04-06T08:30:09;6.70;99.90
2447;DHT22;26430;48.818;9.244;2023-04-06T08:32:35;6.70;99.90
2447;DHT22;26430;48.818;9.244;2023-04-06T08:35:01;6.80;99.90
2447;DHT22;26430;48.818;9.244;2023-04-06T08:37:27;7.00;99.90
2447;DHT22;26430;48.818;9.244;2023-04-06T08:39:52;7.20;99.90
2447;DHT22;26430;48.818;9.244;2023-04-06T08:42:21;7.30;99.90
2447;DHT22;26430;48.818;9.244;2023-04-06T08:44:49;7.50;99.90
2447;DHT22;26430;48.818;9.244;2023-04-06T08:47:17;7.60;99.90
2447;DHT22;26430;48.818;9.244;2023-04-06T08:49:44;8.00;99.90
2447;DHT22;26430;48.818;9.244;2023-04-06T08:52:11;8.10;99.90
2447;DHT22;26430;48.818;9.244;2023-04-06T08:54:37;8.30;99.90
2447;DHT22;26430;48.818;9.244;2023-04-06T08:57:04;8.40;99.90
2447;DHT22;26430;48.818;9.244;2023-04-06T08:59:31;8.50;99.90
2447;DHT22;26430;48.818;9.244;2023-04-06T09:01:57;8.50;99.10
2447;DHT22;26430;48.818;9.244;2023-04-06T09:04:24;8.40;96.90
2447;DHT22;26430;48.818;9.244;2023-04-06T09:06:51;8.30;96.70
2447;DHT22;26430;48.818;9.244;2023-04-06T09:09:17;8.30;97.20
2447;DHT22;26430;48.818;9.244;2023-04-06T09:11:45;8.30;95.80
2447;DHT22;26430;48.818;9.244;2023-04-06T09:14:11;8.40;95.40
2447;DHT22;26430;48.818;9.244;2023-04-06T09:16:40;8.80;95.80
2447;DHT22;26430;48.818;9.244;2023-04-06T09:19:07;8.90;96.20
2447;DHT22;26430;48.818;9.244;2023-04-06T09:21:33;9.00;94.30
2447;DHT22;26430;48.818;9.244;2023-04-06T09:23:59;9.10;94.10
2447;DHT22;26430;48.818;9.244;2023-04-06T09:26:25;9.20;93.10
2447;DHT22;26430;48.818;9.244;2023-04-06T09:28:57;9.40;92.00
2447;DHT22;26430;48.818;9.244;2023-04-06T09:33:52;9.70;89.20
2447;DHT22;26430;48.818;9.244;2023-04-06T09:36:19;9.80;88.50
2447;DHT22;26430;48.818;9.244;2023-04-06T09:39:14;10.00;80.90
2447;DHT22;26430;48.818;9.244;2023-04-06T09:41:40;10.00;79.30
2447;DHT22;26430;48.818;9.244;2023-04-06T09:44:10;9.90;82.30
2447;DHT22;26430;48.818;9.244;2023-04-06T09:46:37;10.00;82.20
2447;DHT22;26430;48.818;9.244;2023-04-06T09:49:05;10.20;82.20
2447;DHT22;26430;48.818;9.244;2023-04-06T09:51:38;10.80;82.90
2447;DHT22;26430;48.818;9.244;2023-04-06T09:54:05;11.70;79.00
2447;DHT22;26430;48.818;9.244;2023-04-06T09:56:37;11.70;74.90
2447;DHT22;26430;48.818;9.244;2023-04-06T09:59:08;11.90;75.00
2447;DHT22;26430;48.818;9.244;2023-04-06T10:01:38;12.80;74.00
2447;DHT22;26430;48.818;9.244;2023-04-06T10:06:37;14.30;67.80
2447;DHT22;26430;48.818;9.244;2023-04-06T10:09:04;13.20;64.10
2447;DHT22;26430;48.818;9.244;2023-04-06T10:11:31;13.80;65.80
2447;DHT22;26430;48.818;9.244;2023-04-06T10:13:57;12.10;62.10
2447;DHT22;26430;48.818;9.244;2023-04-06T10:16:22;12.80;65.20
2447;DHT22;26430;48.818;9.244;2023-04-06T10:18:54;14.60;64.60
2447;DHT22;26430;48.818;9.244;2023-04-06T10:21:24;13.80;58.00
2447;DHT22;26430;48.818;9.244;2023-04-06T10:23:54;14.40;54.10
2447;DHT22;26430;48.818;9.244;2023-04-06T10:26:21;15.80;54.70
2447;DHT22;26430;48.818;9.244;2023-04-06T10:28:48;16.10;51.30
2447;DHT22;26430;48.818;9.244;2023-04-06T10:31:15;15.70;49.70
2447;DHT22;26430;48.818;9.244;2023-04-06T10:33:41;14.70;47.00
2447;DHT22;26430;48.818;9.244;2023-04-06T10:36:15;15.20;50.80
2447;DHT22;26430;48.818;9.244;2023-04-06T10:38:46;15.80;51.90
2447;DHT22;26430;48.818;9.244;2023-04-06T10:41:12;16.70;49.10
2447;DHT22;26430;48.818;9.244;2023-04-06T10:43:39;17.30;50.00
2447;DHT22;26430;48.818;9.244;2023-04-06T10:46:06;16.10;47.70
2447;DHT22;26430;48.818;9.244;2023-04-06T10:48:43;15.40;49.40
2447;DHT22;26430;48.818;9.244;2023-04-06T10:51:15;14.70;49.50
2447;DHT22;26430;48.818;9.244;2023-04-06T10:53:47;15.50;52.40
2447;DHT22;26430;48.818;9.244;2023-04-06T10:56:16;16.60;49.70
2447;DHT22;26430;48.818;9.244;2023-04-06T10:58:47;15.80;48.40
2447;DHT22;26430;48.818;9.244;2023-04-06T11:01:17;15.40;50.70
2447;DHT22;26430;48.818;9.244;2023-04-06T11:03:51;15.20;52.40
2447;DHT22;26430;48.818;9.244;2023-04-06T11:06:22;15.70;51.50
2447;DHT22;26430;48.818;9.244;2023-04-06T11:08:47;16.20;49.90
2447;DHT22;26430;48.818;9.244;2023-04-06T11:11:16;16.00;49.40
2447;DHT22;26430;48.818;9.244;2023-04-06T11:16:22;16.30;48.70
2447;DHT22;26430;48.818;9.244;2023-04-06T11:19:04;16.40;49.00
2447;DHT22;26430;48.818;9.244;2023-04-06T11:26:41;17.20;47.30
2447;DHT22;26430;48.818;9.244;2023-04-06T11:29:07;17.50;46.30
2447;DHT22;26430;48.818;9.244;2023-04-06T11:31:41;17.20;46.90
2447;DHT22;26430;48.818;9.244;2023-04-06T11:34:11;16.80;48.90
2447;DHT22;26430;48.818;9.244;2023-04-06T11:36:40;15.80;46.00
2447;DHT22;26430;48.818;9.244;2023-04-06T11:39:06;14.50;46.10
2447;DHT22;26430;48.818;9.244;2023-04-06T11:41:32;15.40;49.40
2447;DHT22;26430;48.818;9.244;2023-04-06T11:44:01;15.90;47.20
2447;DHT22;26430;48.818;9.244;2023-04-06T11:46:28;15.30;46.40
2447;DHT22;26430;48.818;9.244;2023-04-06T11:49:01;15.20;47.90
2447;DHT22;26430;48.818;9.244;2023-04-06T11:51:27;15.40;47.10
2447;DHT22;26430;48.818;9.244;2023-04-06T11:53:53;15.60;48.60
2447;DHT22;26430;48.818;9.244;2023-04-06T11:56:30;15.20;46.40
2447;DHT22;26430;48.818;9.244;2023-04-06T11:58:57;15.60;48.20
2447;DHT22;26430;48.818;9.244;2023-04-06T12:01:24;15.40;48.10
2447;DHT22;26430;48.818;9.244;2023-04-06T12:03:51;15.10;48.40
2447;DHT22;26430;48.818;9.244;2023-04-06T12:06:17;15.80;48.50
2447;DHT22;26430;48.818;9.244;2023-04-06T12:08:42;16.10;45.70
2447;DHT22;26430;48.818;9.244;2023-04-06T12:11:08;16.40;47.30
2447;DHT22;26430;48.818;9.244;2023-04-06T12:13:34;15.70;48.00
2447;DHT22;26430;48.818;9.244;2023-04-06T12:16:00;16.10;47.20
2447;DHT22;26430;48.818;9.244;2023-04-06T12:18:25;16.60;46.70
2447;DHT22;26430;48.818;9.244;2023-04-06T12:20:51;16.90;46.70
2447;DHT22;26430;48.818;9.244;2023-04-06T12:23:18;17.20;44.50
2447;DHT22;26430;48.818;9.244;2023-04-06T12:25:44;17.00;45.70
2447;DHT22;26430;48.818;9.244;2023-04-06T12:28:10;16.30;43.80
2447;DHT22;26430;48.818;9.244;2023-04-06T12:30:35;16.70;46.10
2447;DHT22;26430;48.818;9.244;2023-04-06T12:33:01;16.50;44.80
2447;DHT22;26430;48.818;9.244;2023-04-06T12:35:27;16.90;47.30
2447;DHT22;26430;48.818;9.244;2023-04-06T12:37:53;17.00;45.20
2447;DHT22;26430;48.818;9.244;2023-04-06T12:40:18;17.10;45.20
2447;DHT22;26430;48.818;9.244;2023-04-06T12:42:44;16.90;45.50
2447;DHT22;26430;48.818;9.244;2023-04-06T12:45:11;16.90;46.80
2447;DHT22;26430;48.818;9.244;2023-04-06T12:47:37;16.10;43.70
2447;DHT22;26430;48.818;9.244;2023-04-06T12:50:04;16.30;48.00
2447;DHT22;26430;48.818;9.244;2023-04-06T12:52:31;16.40;47.60
2447;DHT22;26430;48.818;9.244;2023-04-06T12:54:57;16.20;47.50
2447;DHT22;26430;48.818;9.244;2023-04-06T12:57:24;16.30;45.90
2447;DHT22;26430;48.818;9.244;2023-04-06T12:59:51;16.40;47.90
2447;DHT22;26430;48.818;9.244;2023-04-06T13:02:18;16.70;46.40
2447;DHT22;26430;48.818;9.244;2023-04-06T13:04:45;16.90;46.60
2447;DHT22;26430;48.818;9.244;2023-04-06T13:07:11;17.40;47.20
2447;DHT22;26430;48.818;9.244;2023-04-06T13:09:36;17.60;43.50
2447;DHT22;26430;48.818;9.244;2023-04-06T13:12:02;17.70;45.10
2447;DHT22;26430;48.818;9.244;2023-04-06T13:14:28;17.80;45.10
2447;DHT22;26430;48.818;9.244;2023-04-06T13:16:54;17.70;45.10
2447;DHT22;26430;48.818;9.244;2023-04-06T13:19:20;17.80;48.20
2447;DHT22;26430;48.818;9.244;2023-04-06T13:21:45;17.50;45.60
2447;DHT22;26430;48.818;9.244;2023-04-06T13:24:11;17.40;46.20
2447;DHT22;26430;48.818;9.244;2023-04-06T13:26:37;16.90;45.90
2447;DHT22;26430;48.818;9.244;2023-04-06T13:29:02;16.80;44.10
2447;DHT22;26430;48.818;9.244;2023-04-06T13:31:28;17.00;45.50
2447;DHT22;26430;48.818;9.244;2023-04-06T13:33:54;16.70;43.10
2447;DHT22;26430;48.818;9.244;2023-04-06T13:36:21;17.10;46.60
2447;DHT22;26430;48.818;9.244;2023-04-06T13:38:47;17.20;45.00
2447;DHT22;26430;48.818;9.244;2023-04-06T13:41:24;17.40;42.30
2447;DHT22;26430;48.818;9.244;2023-04-06T13:43:50;17.20;43.60
2447;DHT22;26430;48.818;9.244;2023-04-06T13:46:16;17.00;43.30
2447;DHT22;26430;48.818;9.244;2023-04-06T13:48:43;16.70;43.90
2447;DHT22;26430;48.818;9.244;2023-04-06T13:53:35;15.30;44.80
2447;DHT22;26430;48.818;9.244;2023-04-06T13:56:01;15.00;47.20
2447;DHT22;26430;48.818;9.244;2023-04-06T13:58:26;14.80;46.30
2447;DHT22;26430;48.818;9.244;2023-04-06T14:00:52;14.30;46.60
2447;DHT22;26430;48.818;9.244;2023-04-06T14:03:18;13.80;46.60
2447;DHT22;26430;48.818;9.244;2023-04-06T14:05:45;13.50;46.60
2447;DHT22;26430;48.818;9.244;2023-04-06T14:08:10;13.90;47.80
2447;DHT22;26430;48.818;9.244;2023-04-06T14:10:40;14.50;48.20
2447;DHT22;26430;48.818;9.244;2023-04-06T14:13:07;14.80;46.80
2447;DHT22;26430;48.818;9.244;2023-04-06T14:15:33;14.80;45.10
2447;DHT22;26430;48.818;9.244;2023-04-06T14:17:59;14.50;45.40
2447;DHT22;26430;48.818;9.244;2023-04-06T14:20:25;14.40;45.50
2447;DHT22;26430;48.818;9.244;2023-04-06T14:22:51;14.80;46.70
2447;DHT22;26430;48.818;9.244;2023-04-06T14:25:18;14.60;47.70
2447;DHT22;26430;48.818;9.244;2023-04-06T14:27:44;14.90;46.80
2447;DHT22;26430;48.818;9.244;2023-04-06T14:30:10;15.00;47.30
2447;DHT22;26430;48.818;9.244;2023-04-06T14:32:36;15.10;46.30
2447;DHT22;26430;48.818;9.244;2023-04-06T14:35:03;15.50;48.50
2447;DHT22;26430;48.818;9.244;2023-04-06T14:37:29;15.50;47.20
2447;DHT22;26430;48.818;9.244;2023-04-06T14:39:55;15.30;47.30
2447;DHT22;26430;48.818;9.244;2023-04-06T14:42:20;15.70;46.20
2447;DHT22;26430;48.818;9.244;2023-04-06T14:44:46;16.20;45.00
2447;DHT22;26430;48.818;9.244;2023-04-06T14:47:12;16.10;47.40
2447;DHT22;26430;48.818;9.244;2023-04-06T14:49:40;16.10;46.30
2447;DHT22;26430;48.818;9.244;2023-04-06T14:52:06;16.30;46.40
2447;DHT22;26430;48.818;9.244;2023-04-06T14:54:32;16.10;46.60
2447;DHT22;26430;48.818;9.244;2023-04-06T14:56:57;15.90;46.50
2447;DHT22;26430;48.818;9.244;2023-04-06T14:59:23;15.80;45.60
2447;DHT22;26430;48.818;9.244;2023-04-06T15:01:48;15.00;45.80
2447;DHT22;26430;48.818;9.244;2023-04-06T15:04:14;14.60;46.10
2447;DHT22;26430;48.818;9.244;2023-04-06T15:06:40;14.60;48.40
2447;DHT22;26430;48.818;9.244;2023-04-06T15:09:05;15.00;47.40
2447;DHT22;26430;48.818;9.244;2023-04-06T15:11:31;15.30;46.30
2447;DHT22;26430;48.818;9.244;2023-04-06T15:13:56;15.40;46.00
2447;DHT22;26430;48.818;9.244;2023-04-06T15:16:22;15.50;46.70
2447;DHT22;26430;48.818;9.244;2023-04-06T15:18:47;15.50;46.60
2447;DHT22;26430;48.818;9.244;2023-04-06T15:21:13;15.60;45.40
2447;DHT22;26430;48.818;9.244;2023-04-06T15:23:38;15.30;47.40
2447;DHT22;26430;48.818;9.244;2023-04-06T15:26:04;14.90;47.00
2447;DHT22;26430;48.818;9.244;2023-04-06T15:28:30;15.20;47.90
2447;DHT22;26430;48.818;9.244;2023-04-06T15:30:56;15.20;46.00
2447;DHT22;26430;48.818;9.244;2023-04-06T15:33:23;15.30;46.60
2447;DHT22;26430;48.818;9.244;2023-04-06T15:35:48;15.40;46.50
2447;DHT22;26430;48.818;9.244;2023-04-06T15:38:14;15.60;47.10
2447;DHT22;26430;48.818;9.244;2023-04-06T15:40:45;15.60;47.80
2447;DHT22;26430;48.818;9.244;2023-04-06T15:43:12;15.60;46.80
2447;DHT22;26430;48.818;9.244;2023-04-06T15:45:38;15.50;45.60
2447;DHT22;26430;48.818;9.244;2023-04-06T15:48:04;15.60;45.40
2447;DHT22;26430;48.818;9.244;2023-04-06T15:50:30;15.40;47.80
2447;DHT22;26430;48.818;9.244;2023-04-06T15:52:56;15.30;46.60
2447;DHT22;26430;48.818;9.244;2023-04-06T15:55:22;14.90;48.10
2447;DHT22;26430;48.818;9.244;2023-04-06T15:57:48;14.90;47.10
2447;DHT22;26430;48.818;9.244;2023-04-06T16:00:14;14.90;48.20
2447;DHT22;26430;48.818;9.244;2023-04-06T16:02:40;14.90;49.80
2447;DHT22;26430;48.818;9.244;2023-04-06T16:05:05;15.00;47.60